createdAt,value
2018-12-10T00:02:14.254Z,6.50
2018-12-10T00:04:43.185Z,6.60
2018-12-10T00:07:12.787Z,6.60
2018-12-10T00:09:41.733Z,6.60
2018-12-10T00:12:10.637Z,6.50
2018-12-10T00:14:39.452Z,6.50
2018-12-10T00:17:08.385Z,6.40
2018-12-10T00:19:37.226Z,6.50
2018-12-10T00:22:06.081Z,6.40
2018-12-10T00:24:34.958Z,6.40
2018-12-10T00:27:03.988Z,6.40
2018-12-10T00:29:32.918Z,6.40
2018-12-10T00:32:01.853Z,6.40
2018-12-10T00:34:30.650Z,6.40
2018-12-10T00:36:59.497Z,6.40
2018-12-10T00:39:28.633Z,6.40
2018-12-10T00:41:57.699Z,6.50
2018-12-10T00:44:26.588Z,6.40
2018-12-10T00:46:55.449Z,6.30
2018-12-10T00:49:24.390Z,6.20
2018-12-10T00:51:54.195Z,6.20
2018-12-10T00:54:22.970Z,6.30
2018-12-10T00:56:51.818Z,6.40
2018-12-10T00:59:20.939Z,6.30
2018-12-10T01:01:50.446Z,6.40
2018-12-10T01:04:19.374Z,6.30
2018-12-10T01:06:48.190Z,6.30
2018-12-10T01:09:17.037Z,6.20
2018-12-10T01:11:46.351Z,6.10
2018-12-10T01:14:15.372Z,6.10
2018-12-10T01:16:44.189Z,6.10
2018-12-10T01:19:13.222Z,5.90
2018-12-10T01:21:42.110Z,5.90
2018-12-10T01:24:10.905Z,5.90
2018-12-10T01:26:39.900Z,5.90
2018-12-10T01:29:09.594Z,5.80
2018-12-10T01:31:38.381Z,5.70
2018-12-10T01:34:07.185Z,5.70
2018-12-10T01:36:35.997Z,5.70
2018-12-10T01:39:06.037Z,5.50
2018-12-10T01:41:34.951Z,5.50
2018-12-10T01:44:04.857Z,5.50
2018-12-10T01:46:33.881Z,5.50
2018-12-10T01:49:02.741Z,5.50
2018-12-10T01:51:32.594Z,5.50
2018-12-10T01:54:01.467Z,5.50
2018-12-10T01:56:30.320Z,5.50
2018-12-10T01:58:59.149Z,5.50
2018-12-10T02:01:29.570Z,5.50
2018-12-10T02:03:58.368Z,5.40
2018-12-10T02:06:27.133Z,5.40
2018-12-10T02:08:56.125Z,5.30
2018-12-10T02:11:25.668Z,5.30
2018-12-10T02:13:54.709Z,5.20
2018-12-10T02:16:24.374Z,5.20
2018-12-10T02:18:53.285Z,5.20
2018-12-10T02:21:22.207Z,5.10
2018-12-10T02:23:50.976Z,5.10
2018-12-10T02:26:19.843Z,5.10
2018-12-10T02:28:54.010Z,5.00
2018-12-10T02:31:22.813Z,5.10
2018-12-10T02:33:51.594Z,5.10
2018-12-10T02:36:20.412Z,5.10
2018-12-10T02:38:49.313Z,5.10
2018-12-10T02:41:18.599Z,5.10
2018-12-10T02:43:47.399Z,5.10
2018-12-10T02:46:16.246Z,5.10
2018-12-10T02:48:45.037Z,5.10
2018-12-10T02:51:14.426Z,5.10
2018-12-10T02:53:43.257Z,5.00
2018-12-10T02:56:12.174Z,5.10
2018-12-10T02:58:40.913Z,5.10
2018-12-10T03:01:09.805Z,5.10
2018-12-10T03:03:38.841Z,5.10
2018-12-10T03:06:07.902Z,5.10
2018-12-10T03:08:36.924Z,5.00
2018-12-10T03:11:05.895Z,5.00
2018-12-10T03:13:36.405Z,5.00
2018-12-10T03:16:05.545Z,5.00
2018-12-10T03:18:34.477Z,4.90
2018-12-10T03:21:03.310Z,4.90
2018-12-10T03:23:32.114Z,4.90
2018-12-10T03:26:01.056Z,4.90
2018-12-10T03:28:30.045Z,4.90
2018-12-10T03:30:58.875Z,4.90
2018-12-10T03:33:27.676Z,4.90
2018-12-10T03:35:56.653Z,4.90
2018-12-10T03:38:25.454Z,4.90
2018-12-10T03:40:54.875Z,4.90
2018-12-10T03:43:23.644Z,4.90
2018-12-10T03:45:52.704Z,5.00
2018-12-10T03:48:21.619Z,4.90
2018-12-10T03:50:51.772Z,4.90
2018-12-10T03:53:20.603Z,4.80
2018-12-10T03:55:49.442Z,4.90
2018-12-10T03:58:18.350Z,4.90
2018-12-10T04:00:47.284Z,4.90
2018-12-10T04:03:16.078Z,4.90
2018-12-10T04:05:45.315Z,4.80
2018-12-10T04:08:14.193Z,4.80
2018-12-10T04:10:43.046Z,4.90
2018-12-10T04:13:11.854Z,4.90
2018-12-10T04:15:41.417Z,4.80
2018-12-10T04:18:10.275Z,4.80
2018-12-10T04:20:39.738Z,4.80
2018-12-10T04:23:09.422Z,4.80
2018-12-10T04:25:38.304Z,4.80
2018-12-10T04:28:07.153Z,4.80
2018-12-10T04:30:35.930Z,4.80
2018-12-10T04:33:05.629Z,4.80
2018-12-10T04:35:34.454Z,4.90
2018-12-10T04:38:03.314Z,4.80
2018-12-10T04:40:32.546Z,4.90
2018-12-10T04:43:01.406Z,4.80
2018-12-10T04:45:30.382Z,4.70
2018-12-10T04:47:59.338Z,4.80
2018-12-10T04:50:28.124Z,4.70
2018-12-10T04:52:57.444Z,4.90
2018-12-10T04:55:26.530Z,4.80
2018-12-10T04:57:55.470Z,4.80
2018-12-10T05:00:24.421Z,4.90
2018-12-10T05:02:53.242Z,4.90
2018-12-10T05:05:22.053Z,4.80
2018-12-10T05:07:51.009Z,4.80
2018-12-10T05:10:19.814Z,4.80
2018-12-10T05:12:48.693Z,4.70
2018-12-10T05:15:17.641Z,4.70
2018-12-10T05:17:46.450Z,4.70
2018-12-10T05:20:15.489Z,4.70
2018-12-10T05:22:44.383Z,4.80
2018-12-10T05:25:13.261Z,4.80
2018-12-10T05:27:42.211Z,4.80
2018-12-10T05:30:11.061Z,4.80
2018-12-10T05:32:39.970Z,4.80
2018-12-10T05:35:08.858Z,4.80
2018-12-10T05:37:37.684Z,4.80
2018-12-10T05:40:06.675Z,4.90
2018-12-10T05:42:35.704Z,5.10
2018-12-10T05:45:05.009Z,5.00
2018-12-10T05:47:33.898Z,5.00
2018-12-10T05:50:02.837Z,4.90
2018-12-10T05:52:31.712Z,5.00
2018-12-10T05:55:00.495Z,4.90
2018-12-10T05:57:29.315Z,4.90
2018-12-10T05:59:58.090Z,5.00
2018-12-10T06:02:27.258Z,5.20
2018-12-10T06:04:56.051Z,5.10
2018-12-10T06:07:24.825Z,5.20
2018-12-10T06:09:53.666Z,5.20
2018-12-10T06:12:22.544Z,5.20
2018-12-10T06:14:51.417Z,5.10
2018-12-10T06:17:20.205Z,4.90
2018-12-10T06:19:49.242Z,4.60
2018-12-10T06:22:18.037Z,4.60
2018-12-10T06:24:46.863Z,4.60
2018-12-10T06:27:15.649Z,4.10
2018-12-10T06:29:44.445Z,3.70
2018-12-10T06:32:13.264Z,3.30
2018-12-10T06:34:42.046Z,3.10
2018-12-10T06:37:10.944Z,3.10
2018-12-10T06:39:39.738Z,3.00
2018-12-10T06:42:08.708Z,3.10
2018-12-10T06:44:37.603Z,3.10
2018-12-10T06:47:06.402Z,3.20
2018-12-10T06:49:35.206Z,3.30
2018-12-10T06:52:03.997Z,3.30
2018-12-10T06:54:32.972Z,3.50
2018-12-10T06:57:01.761Z,3.50
2018-12-10T06:59:30.542Z,3.60
2018-12-10T07:01:59.330Z,3.70
2018-12-10T07:04:28.182Z,3.90
2018-12-10T07:06:57.021Z,4.00
2018-12-10T07:09:25.826Z,4.00
2018-12-10T07:11:54.621Z,3.80
2018-12-10T07:14:23.509Z,3.80
2018-12-10T07:16:52.657Z,3.90
2018-12-10T07:19:23.591Z,3.90
2018-12-10T07:21:52.461Z,3.90
2018-12-10T07:24:21.299Z,3.90
2018-12-10T07:26:50.230Z,4.00
2018-12-10T07:29:19.127Z,4.00
2018-12-10T07:31:47.986Z,4.10
2018-12-10T07:34:16.799Z,4.00
2018-12-10T07:36:45.730Z,4.00
2018-12-10T07:39:14.520Z,4.00
2018-12-10T07:41:43.409Z,4.00
2018-12-10T07:44:13.647Z,4.00
2018-12-10T07:46:42.750Z,4.00
2018-12-10T07:49:11.754Z,4.00
2018-12-10T07:51:40.626Z,4.00
2018-12-10T07:54:09.483Z,3.90
2018-12-10T07:56:38.277Z,4.10
2018-12-10T07:59:07.038Z,4.00
2018-12-10T08:01:35.913Z,3.90
2018-12-10T08:04:04.701Z,4.00
2018-12-10T08:06:33.489Z,4.20
2018-12-10T08:09:02.718Z,4.20
2018-12-10T08:11:31.562Z,4.30
2018-12-10T08:14:00.398Z,4.30
2018-12-10T08:16:29.222Z,4.40
2018-12-10T08:18:58.030Z,4.40
2018-12-10T08:21:26.933Z,4.30
2018-12-10T08:23:55.714Z,4.30
2018-12-10T08:26:24.501Z,4.30
2018-12-10T08:29:00.074Z,4.40
2018-12-10T08:31:24.266Z,4.50
2018-12-10T08:33:53.279Z,4.50
2018-12-10T08:36:22.057Z,4.50
2018-12-10T08:38:50.838Z,4.50
2018-12-10T08:41:19.690Z,4.50
2018-12-10T08:43:48.609Z,4.50
2018-12-10T08:46:17.412Z,4.50
2018-12-10T08:48:46.204Z,4.60
2018-12-10T08:51:15.055Z,4.70
2018-12-10T08:53:44.069Z,4.70
2018-12-10T08:56:12.867Z,4.80
2018-12-10T08:58:41.732Z,4.80
2018-12-10T09:01:10.509Z,4.80
2018-12-10T09:03:39.521Z,4.80
2018-12-10T09:06:08.501Z,4.80
2018-12-10T09:08:37.317Z,4.80
2018-12-10T09:11:06.277Z,4.80
2018-12-10T09:13:35.150Z,4.90
2018-12-10T09:16:04.069Z,5.00
2018-12-10T09:18:33.013Z,5.00
2018-12-10T09:21:01.914Z,5.00
2018-12-10T09:23:30.828Z,5.00
2018-12-10T09:25:59.617Z,5.00
2018-12-10T09:28:28.389Z,5.00
2018-12-10T09:30:57.208Z,5.10
2018-12-10T09:33:26.027Z,5.10
2018-12-10T09:35:54.807Z,5.10
2018-12-10T09:38:24.004Z,5.20
2018-12-10T09:40:52.886Z,5.10
2018-12-10T09:43:21.749Z,5.10
2018-12-10T09:45:50.533Z,5.10
2018-12-10T09:48:19.417Z,5.10
2018-12-10T09:50:48.344Z,5.10
2018-12-10T09:53:17.121Z,5.10
2018-12-10T09:55:46.069Z,5.10
2018-12-10T09:58:14.947Z,5.10
2018-12-10T10:00:43.824Z,5.00
2018-12-10T10:03:12.593Z,5.00
2018-12-10T10:05:41.419Z,4.90
2018-12-10T10:08:10.325Z,4.90
2018-12-10T10:10:39.198Z,4.90
2018-12-10T10:13:07.974Z,5.00
2018-12-10T10:15:36.766Z,5.00
2018-12-10T10:18:05.575Z,5.00
2018-12-10T10:20:34.425Z,5.00
2018-12-10T10:23:03.375Z,5.10
2018-12-10T10:25:32.288Z,5.10
2018-12-10T10:28:01.155Z,5.20
2018-12-10T10:30:30.279Z,5.20
2018-12-10T10:32:59.057Z,5.30
2018-12-10T10:35:28.018Z,5.30
2018-12-10T10:37:56.903Z,5.30
2018-12-10T10:40:25.692Z,5.40
2018-12-10T10:42:54.549Z,5.40
2018-12-10T10:45:23.450Z,5.50
2018-12-10T10:47:52.345Z,5.60
2018-12-10T10:50:21.292Z,5.50
2018-12-10T10:52:52.005Z,5.60
2018-12-10T10:55:20.868Z,5.60
2018-12-10T10:57:49.869Z,5.70
2018-12-10T11:00:24.347Z,5.70
2018-12-10T11:02:53.494Z,5.70
2018-12-10T11:05:22.349Z,5.60
2018-12-10T11:07:51.277Z,5.60
2018-12-10T11:10:20.123Z,5.60
2018-12-10T11:12:48.913Z,5.60
2018-12-10T11:15:17.693Z,5.60
2018-12-10T11:17:46.653Z,5.50
2018-12-10T11:20:15.507Z,5.50
2018-12-10T11:22:44.318Z,5.50
2018-12-10T11:25:13.242Z,5.60
2018-12-10T11:27:42.037Z,5.60
2018-12-10T11:30:10.999Z,5.60
2018-12-10T11:32:39.797Z,5.60
2018-12-10T11:35:08.669Z,5.50
2018-12-10T11:37:37.510Z,5.40
2018-12-10T11:40:06.461Z,5.50
2018-12-10T11:42:35.237Z,5.40
2018-12-10T11:45:04.168Z,5.40
2018-12-10T11:47:33.237Z,5.50
2018-12-10T11:50:02.169Z,5.50
2018-12-10T11:52:31.251Z,5.40
2018-12-10T11:55:00.046Z,5.50
2018-12-10T11:57:28.895Z,5.40
2018-12-10T11:59:57.964Z,5.30
2018-12-10T12:02:29.858Z,5.50
2018-12-10T12:04:57.832Z,5.50
2018-12-10T12:07:27.082Z,5.40
2018-12-10T12:09:56.099Z,5.50
2018-12-10T12:12:25.453Z,5.40
2018-12-10T12:14:54.434Z,5.40
2018-12-10T12:17:23.409Z,5.50
2018-12-10T12:19:52.298Z,5.50
2018-12-10T12:22:21.209Z,5.60
2018-12-10T12:24:50.087Z,5.70
2018-12-10T12:27:19.249Z,5.80
2018-12-10T12:29:48.098Z,5.70
2018-12-10T12:32:16.957Z,5.70
2018-12-10T12:34:45.806Z,5.80
2018-12-10T12:37:14.628Z,5.80
2018-12-10T12:39:43.399Z,6.20
2018-12-10T12:42:12.309Z,6.60
2018-12-10T12:44:41.174Z,6.60
2018-12-10T12:47:09.990Z,6.50
2018-12-10T12:49:39.093Z,6.40
2018-12-10T12:52:07.883Z,6.30
2018-12-10T12:54:36.704Z,6.30
2018-12-10T12:57:05.705Z,6.40
2018-12-10T12:59:34.482Z,6.40
2018-12-10T13:02:03.345Z,6.40
2018-12-10T13:04:33.703Z,6.70
2018-12-10T13:07:02.798Z,6.80
2018-12-10T13:09:32.021Z,6.80
2018-12-10T13:12:01.077Z,7.20
2018-12-10T13:14:29.869Z,7.60
2018-12-10T13:16:58.646Z,7.70
2018-12-10T13:19:27.458Z,7.70
2018-12-10T13:21:56.495Z,7.50
2018-12-10T13:24:25.243Z,7.60
2018-12-10T13:26:54.036Z,7.60
2018-12-10T13:29:31.045Z,7.80
2018-12-10T13:31:53.694Z,7.90
2018-12-10T13:34:22.668Z,8.10
2018-12-10T13:36:51.484Z,7.60
2018-12-10T13:39:20.411Z,7.70
2018-12-10T13:41:49.306Z,7.90
2018-12-10T13:44:18.168Z,7.70
2018-12-10T13:46:46.946Z,7.70
2018-12-10T13:49:15.741Z,7.50
2018-12-10T13:51:44.553Z,7.30
2018-12-10T13:54:13.620Z,7.40
2018-12-10T13:56:42.450Z,7.30
2018-12-10T13:59:11.462Z,7.00
2018-12-10T14:01:40.247Z,6.90
2018-12-10T14:04:14.017Z,6.80
2018-12-10T14:06:42.784Z,6.70
2018-12-10T14:09:11.857Z,6.80
2018-12-10T14:11:40.641Z,6.80
2018-12-10T14:14:09.515Z,6.80
2018-12-10T14:16:38.633Z,6.60
2018-12-10T14:19:07.544Z,6.60
2018-12-10T14:21:36.393Z,6.70
2018-12-10T14:24:05.258Z,6.60
2018-12-10T14:26:34.238Z,6.40
2018-12-10T14:29:03.238Z,6.30
2018-12-10T14:31:32.693Z,6.30
2018-12-10T14:34:06.934Z,6.30
2018-12-10T14:36:35.745Z,6.30
2018-12-10T14:39:09.086Z,6.20
2018-12-10T14:41:37.952Z,6.20
2018-12-10T14:44:06.738Z,6.10
2018-12-10T14:46:35.601Z,6.10
2018-12-10T14:49:04.577Z,6.10
2018-12-10T14:51:33.410Z,6.00
2018-12-10T14:54:02.184Z,6.10
2018-12-10T14:56:31.069Z,6.10
2018-12-10T14:59:00.221Z,6.10
2018-12-10T15:01:29.025Z,6.00
2018-12-10T15:03:57.798Z,6.00
2018-12-10T15:06:26.615Z,5.80
2018-12-10T15:08:55.562Z,5.80
2018-12-10T15:11:25.281Z,5.80
2018-12-10T15:13:54.384Z,5.80
2018-12-10T15:16:23.281Z,5.90
2018-12-10T15:18:52.099Z,5.80
2018-12-10T15:21:20.955Z,5.70
2018-12-10T15:23:49.722Z,5.70
2018-12-10T15:26:18.493Z,5.70
2018-12-10T15:28:47.281Z,5.70
2018-12-10T15:31:16.150Z,5.70
2018-12-10T15:33:44.955Z,5.70
2018-12-10T15:36:13.841Z,5.60
2018-12-10T15:38:42.639Z,5.50
2018-12-10T15:41:11.464Z,5.50
2018-12-10T15:43:40.322Z,5.50
2018-12-10T15:46:09.088Z,5.50
2018-12-10T15:48:37.871Z,5.50
2018-12-10T15:51:06.745Z,5.40
2018-12-10T15:53:35.526Z,5.40
2018-12-10T15:56:04.397Z,5.40
2018-12-10T15:58:34.300Z,5.30
2018-12-10T16:01:03.505Z,5.20
2018-12-10T16:03:32.408Z,5.20
2018-12-10T16:06:01.214Z,5.20
2018-12-10T16:08:30.043Z,5.30
2018-12-10T16:10:59.779Z,5.30
2018-12-10T16:13:28.549Z,5.20
2018-12-10T16:15:57.356Z,5.20
2018-12-10T16:18:26.402Z,5.30
2018-12-10T16:20:55.219Z,5.30
2018-12-10T16:23:24.014Z,5.30
2018-12-10T16:25:52.791Z,5.20
2018-12-10T16:28:21.625Z,5.10
2018-12-10T16:30:50.616Z,5.00
2018-12-10T16:33:19.526Z,4.90
2018-12-10T16:35:48.679Z,4.90
2018-12-10T16:38:17.538Z,4.60
2018-12-10T16:40:46.324Z,4.30
2018-12-10T16:48:58.113Z,4.10
2018-12-10T16:51:26.913Z,4.30
2018-12-10T16:53:55.717Z,4.30
2018-12-10T16:56:24.785Z,4.30
2018-12-10T16:58:53.689Z,4.30
2018-12-10T17:01:22.625Z,4.30
2018-12-10T17:03:51.599Z,4.30
2018-12-10T17:06:20.510Z,4.30
2018-12-10T17:08:49.313Z,4.50
2018-12-10T17:11:18.265Z,4.50
2018-12-10T17:13:47.136Z,4.70
2018-12-10T17:16:15.989Z,4.60
2018-12-10T17:18:44.878Z,4.70
2018-12-10T17:21:13.693Z,4.60
2018-12-10T17:23:42.505Z,4.70
2018-12-10T17:26:11.389Z,4.60
2018-12-10T17:28:40.218Z,4.70
2018-12-10T17:31:09.123Z,4.60
2018-12-10T17:33:37.933Z,4.60
2018-12-10T17:36:06.833Z,4.60
2018-12-10T17:38:35.733Z,4.60
2018-12-10T17:41:06.659Z,4.60
2018-12-10T17:43:35.513Z,4.70
2018-12-10T17:46:04.504Z,4.60
2018-12-10T17:48:33.458Z,4.50
2018-12-10T17:51:02.336Z,4.40
2018-12-10T17:53:31.268Z,4.30
2018-12-10T17:56:00.130Z,4.30
2018-12-10T17:58:29.013Z,4.30
2018-12-10T18:00:57.992Z,4.30
2018-12-10T18:03:26.913Z,4.20
2018-12-10T18:05:55.732Z,4.10
2018-12-10T18:08:24.573Z,4.10
2018-12-10T18:10:53.370Z,4.20
2018-12-10T18:13:22.194Z,4.20
2018-12-10T18:15:51.002Z,4.20
2018-12-10T18:18:19.901Z,4.20
2018-12-10T18:20:49.290Z,4.10
2018-12-10T18:23:18.233Z,4.20
2018-12-10T18:25:48.133Z,4.10
2018-12-10T18:28:18.362Z,4.20
2018-12-10T18:30:53.517Z,4.10
2018-12-10T18:33:22.596Z,4.00
2018-12-10T18:35:51.669Z,4.00
2018-12-10T18:38:20.496Z,4.20
2018-12-10T18:40:49.387Z,4.10
2018-12-10T18:43:18.297Z,4.20
2018-12-10T18:45:47.163Z,4.20
2018-12-10T18:48:15.978Z,4.30
2018-12-10T18:50:44.786Z,4.20
2018-12-10T18:53:13.589Z,4.20
2018-12-10T18:55:42.376Z,4.20
2018-12-10T18:58:11.338Z,4.20
2018-12-10T19:00:40.230Z,4.30
2018-12-10T19:03:09.070Z,4.30
2018-12-10T19:05:37.998Z,4.30
2018-12-10T19:08:06.836Z,4.20
2018-12-10T19:10:35.741Z,4.20
2018-12-10T19:13:04.654Z,4.20
2018-12-10T19:15:33.596Z,4.00
2018-12-10T19:18:02.464Z,4.10
2018-12-10T19:20:31.273Z,4.10
2018-12-10T19:23:00.103Z,4.10
2018-12-10T19:25:29.421Z,4.10
2018-12-10T19:27:58.296Z,4.10
2018-12-10T19:30:27.211Z,4.10
2018-12-10T19:32:56.030Z,4.10
2018-12-10T19:35:24.921Z,4.10
2018-12-10T19:37:53.810Z,4.00
2018-12-10T19:40:22.599Z,4.10
2018-12-10T19:42:51.523Z,4.10
2018-12-10T19:45:20.328Z,4.00
2018-12-10T19:47:49.245Z,4.10
2018-12-10T19:50:18.072Z,4.10
2018-12-10T19:55:21.209Z,4.30
2018-12-10T19:57:50.038Z,4.30
2018-12-10T20:00:19.073Z,4.20
2018-12-10T20:02:48.040Z,4.20
2018-12-10T20:05:16.989Z,4.30
2018-12-10T20:07:45.893Z,4.30
2018-12-10T20:10:14.690Z,4.10
2018-12-10T20:12:43.629Z,4.00
2018-12-10T20:15:12.558Z,4.00
2018-12-10T20:17:41.459Z,4.00
2018-12-10T20:20:10.432Z,3.90
2018-12-10T20:22:39.545Z,3.90
2018-12-10T20:25:08.514Z,3.90
2018-12-10T20:27:37.313Z,3.90
2018-12-10T20:30:06.389Z,3.70
2018-12-10T20:32:35.292Z,3.80
2018-12-10T20:35:04.450Z,4.00
2018-12-10T20:37:33.256Z,4.00
2018-12-10T20:40:02.306Z,3.90
2018-12-10T20:42:31.352Z,3.70
2018-12-10T20:45:00.267Z,3.70
2018-12-10T20:47:29.077Z,3.50
2018-12-10T20:49:57.901Z,3.20
2018-12-10T20:52:26.859Z,3.30
2018-12-10T20:54:55.663Z,2.90
2018-12-10T20:57:24.481Z,2.70
2018-12-10T20:59:53.446Z,2.90
2018-12-10T21:02:22.263Z,3.00
2018-12-10T21:04:51.142Z,3.00
2018-12-10T21:07:19.978Z,3.00
2018-12-10T21:09:48.989Z,3.00
2018-12-10T21:12:17.879Z,3.10
2018-12-10T21:14:46.773Z,3.20
2018-12-10T21:17:15.771Z,3.20
2018-12-10T21:19:44.721Z,3.20
2018-12-10T21:22:13.533Z,3.30
2018-12-10T21:24:42.459Z,3.30
2018-12-10T21:27:11.400Z,3.10
2018-12-10T21:29:40.302Z,3.20
2018-12-10T21:32:09.215Z,3.20
2018-12-10T21:34:38.121Z,3.40
2018-12-10T21:37:07.007Z,3.30
2018-12-10T21:39:35.835Z,3.30
2018-12-10T21:42:04.769Z,3.30
2018-12-10T21:44:33.673Z,3.30
2018-12-10T21:47:02.573Z,3.30
2018-12-10T21:49:31.570Z,3.20
2018-12-10T21:52:00.610Z,3.30
2018-12-10T21:54:30.061Z,3.40
2018-12-10T21:56:58.925Z,3.40
2018-12-10T21:59:27.958Z,3.40
2018-12-10T22:01:57.657Z,3.40
2018-12-10T22:04:26.703Z,3.30
2018-12-10T22:06:55.538Z,3.20
2018-12-10T22:09:24.523Z,3.20
2018-12-10T22:11:53.549Z,3.10
2018-12-10T22:14:23.098Z,3.20
2018-12-10T22:16:52.067Z,3.30
2018-12-10T22:19:21.018Z,3.30
2018-12-10T22:21:49.951Z,3.40
2018-12-10T22:24:18.909Z,3.40
2018-12-10T22:26:47.735Z,3.40
2018-12-10T22:29:16.719Z,3.20
2018-12-10T22:31:45.769Z,3.10
2018-12-10T22:34:14.665Z,3.10
2018-12-10T22:36:43.497Z,3.00
2018-12-10T22:39:12.558Z,3.10
2018-12-10T22:41:41.497Z,3.10
2018-12-10T22:44:10.446Z,3.00
2018-12-10T22:46:39.417Z,3.10
2018-12-10T22:49:08.290Z,3.00
2018-12-10T22:51:37.088Z,3.20
2018-12-10T22:54:05.976Z,3.20
2018-12-10T22:56:34.832Z,3.30
2018-12-10T22:59:03.844Z,3.20
2018-12-10T23:01:32.962Z,3.20
2018-12-10T23:04:02.051Z,3.10
2018-12-10T23:06:31.133Z,3.10
2018-12-10T23:08:59.956Z,3.00
2018-12-10T23:11:29.517Z,3.10
2018-12-10T23:13:58.440Z,3.20
2018-12-10T23:16:27.435Z,3.10
2018-12-10T23:18:56.430Z,3.20
2018-12-10T23:21:25.374Z,3.20
2018-12-10T23:23:54.218Z,3.20
2018-12-10T23:26:23.153Z,3.30
2018-12-10T23:28:51.949Z,3.30
2018-12-10T23:31:21.030Z,3.30
2018-12-10T23:33:49.969Z,3.30
2018-12-10T23:36:18.901Z,3.20
2018-12-10T23:38:47.778Z,3.30
2018-12-10T23:41:16.645Z,3.40
2018-12-10T23:43:45.558Z,3.50
2018-12-10T23:46:14.401Z,3.40
2018-12-10T23:48:43.338Z,3.50
2018-12-10T23:51:12.239Z,3.50
2018-12-10T23:53:41.102Z,3.40
2018-12-10T23:56:10.757Z,3.30
2018-12-10T23:58:39.661Z,3.30
